Holly Ann — WDE9094 — position and weather

sailwx.info

Track history (hours):
 
Tides and Currents Weather Stations Pressure Air Temp Water Temp Dewpoint Dewpoint Depression Visibility Wind Speed Wind Dir Waves Ship Positions

Holly Ann

Owner: Manke Tug and Barge Co., Inc., Shelton, WA. More information available from US FCC via Universal Licensing System and Coast Guard Vessel Documentation Center.

Last reported at 2014-Oct-01 11:33 UTC. Time now 2014-Oct-01 12:20 UTC.
Position N 47°34' W 122°26'.

; draft 4.5 m.

Type: Towing. MMSI: 367413350.

Date/timePositionNaut miles runAvg speedWind from/ knotsBaromVisibWave heightAir tempDewpointWater temp
2014-Oct-01 11:33N 47°34' W 122°26'4 3.9
2014-Oct-01 10:33N 47°31' W 122°29'5 4.9
2014-Oct-01 09:33N 47°26' W 122°31'6 5.7
2014-Oct-01 08:33N 47°20' W 122°33'8 8.4
2014-Oct-01 07:33N 47°12' W 122°37'7 6.5
2014-Oct-01 06:31N 47°10' W 122°46'2 0.1
2014-Sep-30 02:25N 47°11' W 122°49'8 7.5
2014-Sep-30 01:25N 47°12' W 122°38'8 9.2
2014-Sep-30 00:33N 47°19' W 122°33'8 8.4
2014-Sep-29 23:33N 47°27' W 122°31'8 8.0
2014-Sep-29 22:33N 47°35' W 122°26'4 3.8
2014-Sep-29 21:33N 47°33' W 122°21'0 0.0
2014-Sep-29 20:33N 47°33' W 122°21'0 0.0
2014-Sep-29 19:33N 47°33' W 122°21'0 0.0
2014-Sep-29 18:33N 47°33' W 122°21'0 0.0
2014-Sep-29 17:33N 47°33' W 122°21'0 0.0
2014-Sep-29 16:33N 47°33' W 122°21'0 0.0
2014-Sep-29 15:33N 47°33' W 122°21'0 0.0
2014-Sep-29 14:33N 47°33' W 122°21'0 0.0
2014-Sep-29 13:33N 47°33' W 122°21'0 0.0
2014-Sep-29 12:33N 47°33' W 122°21'0 0.0
2014-Sep-29 11:33N 47°33' W 122°21'1 0.7
2014-Sep-29 10:31N 47°34' W 122°21'3 3.2
2014-Sep-29 09:33N 47°35' W 122°25'6 6.5
2014-Sep-29 08:33N 47°29' W 122°30'8 7.6
2014-Sep-29 07:33N 47°22' W 122°32'9 9.1
2014-Sep-29 06:33N 47°13' W 122°35'9 0.2
2014-Sep-27 14:15N 47°11' W 122°49'5 4.6
2014-Sep-27 13:06N 47°11' W 122°41'4 7.5
2014-Sep-27 12:34N 47°13' W 122°35'10 9.8
2014-Sep-27 11:33N 47°23' W 122°32'7 7.4
2014-Sep-27 10:34N 47°30' W 122°30'1 7.2
2014-Sep-27 10:28N 47°31' W 122°29'7 7.8
2014-Sep-27 09:34N 47°38' W 122°28'0 6.7
2014-Sep-27 09:32N 47°38' W 122°28'4 4.4
2014-Sep-27 08:34N 47°41' W 122°25'0 0.0
2014-Sep-27 08:32N 47°41' W 122°25'0 0.0
2014-Sep-27 07:34N 47°41' W 122°25'0 0.0
2014-Sep-27 07:32N 47°41' W 122°25'0 0.1
2014-Sep-27 06:52N 47°41' W 122°25'0 0.0
2014-Sep-27 06:34N 47°41' W 122°25'0 0.0
2014-Sep-27 05:34N 47°41' W 122°25'0 0.0
2014-Sep-27 05:32N 47°41' W 122°25'0 0.0
2014-Sep-27 04:34N 47°41' W 122°25'0 0.2
2014-Sep-27 04:31N 47°41' W 122°25'5 4.9
2014-Sep-27 03:33N 47°46' W 122°25'0 7.0
2014-Sep-27 03:31N 47°46' W 122°25'7 7.5
2014-Sep-27 02:34N 47°53' W 122°22'0 7.8
2014-Sep-27 02:31N 47°54' W 122°22'7 7.7
2014-Sep-27 01:34N 47°59' W 122°14'3 2.9
2014-Sep-27 00:33N 48°01' W 122°11'0 0.0
2014-Sep-26 23:33N 48°01' W 122°11'0 0.0
2014-Sep-26 22:34N 48°01' W 122°11'0 0.0
2014-Sep-26 21:26N 48°01' W 122°11'0 0.0
2014-Sep-26 20:33N 48°01' W 122°11'0 0.0
2014-Sep-26 18:20N 48°01' W 122°11'0 0.0
2014-Sep-26 17:32N 48°01' W 122°11'0 0.0
2014-Sep-26 16:32N 48°01' W 122°11'0 0.0
2014-Sep-26 15:33N 48°01' W 122°11'0 0.0
2014-Sep-26 14:30N 48°01' W 122°11'1 2.4
2014-Sep-26 14:01N 48°01' W 122°13'2 4.4
2014-Sep-26 13:34N 47°59' W 122°14'4 4.1
2014-Sep-26 12:34N 47°57' W 122°19'6 5.8
2014-Sep-26 11:34N 47°52' W 122°22'3 5.9
2014-Sep-26 11:07N 47°50' W 122°24'3 5.8
2014-Sep-26 10:34N 47°47' W 122°25'0 5.5
2014-Sep-26 10:31N 47°46' W 122°25'6 5.8
2014-Sep-26 09:33N 47°41' W 122°27'0 5.2
2014-Sep-26 09:31N 47°41' W 122°27'6 6.0
2014-Sep-26 08:34N 47°35' W 122°27'3 5.5
2014-Sep-26 08:04N 47°32' W 122°28'4 7.2
2014-Sep-26 07:33N 47°29' W 122°30'1 6.9
2014-Sep-26 07:24N 47°28' W 122°31'6 7.1
2014-Sep-26 06:33N 47°22' W 122°32'9 8.6
2014-Sep-26 05:33N 47°14' W 122°35'13 5.7
2014-Sep-26 03:19N 47°10' W 122°53'11 0.4
2014-Sep-25 00:22N 47°12' W 122°37'810.1
2014-Sep-24 23:33N 47°19' W 122°33'9 8.6
2014-Sep-24 22:33N 47°28' W 122°31'7 8.7
2014-Sep-24 21:48N 47°34' W 122°27'2 9.0
2014-Sep-24 21:33N 47°35' W 122°24'0 0.0
2014-Sep-24 21:33N 47°35' W 122°24'3 2.7
2014-Sep-24 20:33N 47°34' W 122°21'0 0.0
2014-Sep-24 20:33N 47°34' W 122°21'0 0.0
2014-Sep-24 19:33N 47°34' W 122°21'0 0.0
2014-Sep-24 19:33N 47°34' W 122°21'0 0.0
2014-Sep-24 18:33N 47°34' W 122°21'0 0.0
2014-Sep-24 18:33N 47°34' W 122°21'0 0.0
2014-Sep-24 17:31N 47°34' W 122°21'0 0.0
2014-Sep-24 17:28N 47°34' W 122°21'0 0.0
2014-Sep-24 16:33N 47°34' W 122°21'0 0.0
2014-Sep-24 16:33N 47°34' W 122°21'0 0.0
2014-Sep-24 15:33N 47°34' W 122°21'0 0.0
2014-Sep-24 15:32N 47°34' W 122°21'0 0.0
2014-Sep-24 14:33N 47°34' W 122°21'0 0.0
2014-Sep-24 14:32N 47°34' W 122°21'0 0.0
2014-Sep-24 13:33N 47°34' W 122°21'0 0.0
2014-Sep-24 13:32N 47°34' W 122°21'0 0.0
2014-Sep-24 12:33N 47°34' W 122°21'0 0.0
2014-Sep-24 12:32N 47°34' W 122°21'0 0.0
2014-Sep-24 11:33N 47°34' W 122°21'0 0.0
2014-Sep-24 11:32N 47°34' W 122°21'0 0.0
2014-Sep-24 10:33N 47°34' W 122°21'0 0.0
2014-Sep-24 10:32N 47°34' W 122°21'0 0.0
2014-Sep-24 09:33N 47°34' W 122°21'0 0.0
2014-Sep-24 09:31N 47°34' W 122°21'0 0.0
2014-Sep-24 08:33N 47°34' W 122°21'0 0.0
2014-Sep-24 08:31N 47°34' W 122°21'0 0.0
2014-Sep-24 07:33N 47°34' W 122°21'0 0.0
2014-Sep-24 07:31N 47°34' W 122°21'3 2.9
2014-Sep-24 06:33N 47°35' W 122°25'0 6.9
2014-Sep-24 06:31N 47°35' W 122°25'7 0.2
2014-Sep-23 00:32N 47°29' W 122°31'7 7.7
2014-Sep-22 23:33N 47°35' W 122°25'3 2.8
2014-Sep-22 22:33N 47°34' W 122°21'0 0.0
2014-Sep-22 21:33N 47°34' W 122°21'0 0.0
2014-Sep-22 20:33N 47°34' W 122°21'0 0.0
2014-Sep-22 19:33N 47°34' W 122°21'0 0.0
2014-Sep-22 18:25N 47°34' W 122°21'0 0.0
2014-Sep-22 17:33N 47°34' W 122°21'0 0.0
2014-Sep-22 16:33N 47°34' W 122°21'0 0.0
2014-Sep-22 15:30N 47°34' W 122°21'0 0.0
2014-Sep-22 14:33N 47°34' W 122°21'0 0.0
2014-Sep-22 12:33N 47°34' W 122°21'0 0.0
2014-Sep-22 11:33N 47°34' W 122°21'0 0.0
2014-Sep-22 10:33N 47°34' W 122°21'0 0.0
2014-Sep-22 09:32N 47°34' W 122°21'0 0.0
2014-Sep-22 08:33N 47°34' W 122°21'0 0.0
2014-Sep-22 07:33N 47°34' W 122°21'1 1.0
2014-Sep-22 06:33N 47°35' W 122°22'  
Track history (hours):
 
Tides and Currents Weather Stations Pressure Air Temp Water Temp Dewpoint Dewpoint Depression Visibility Wind Speed Wind Dir Waves Ship Positions

Holly Ann

Owner: Manke Tug and Barge Co., Inc., Shelton, WA. More information available from US FCC via Universal Licensing System and Coast Guard Vessel Documentation Center.

Last reported at 2014-Oct-01 11:33 UTC. Time now 2014-Oct-01 12:20 UTC.
Position N 47°34' W 122°26'.

; draft 4.5 m.

Type: Towing. MMSI: 367413350.

Date/timePositionNaut miles runAvg speedWind from/ knotsBaromVisibWave heightAir tempDewpointWater temp
2014-Oct-01 11:33N 47°34' W 122°26'4 3.9
2014-Oct-01 10:33N 47°31' W 122°29'5 4.9
2014-Oct-01 09:33N 47°26' W 122°31'6 5.7
2014-Oct-01 08:33N 47°20' W 122°33'8 8.4
2014-Oct-01 07:33N 47°12' W 122°37'7 6.5
2014-Oct-01 06:31N 47°10' W 122°46'2 0.1
2014-Sep-30 02:25N 47°11' W 122°49'8 7.5
2014-Sep-30 01:25N 47°12' W 122°38'8 9.2
2014-Sep-30 00:33N 47°19' W 122°33'8 8.4
2014-Sep-29 23:33N 47°27' W 122°31'8 8.0
2014-Sep-29 22:33N 47°35' W 122°26'4 3.8
2014-Sep-29 21:33N 47°33' W 122°21'0 0.0
2014-Sep-29 20:33N 47°33' W 122°21'0 0.0
2014-Sep-29 19:33N 47°33' W 122°21'0 0.0
2014-Sep-29 18:33N 47°33' W 122°21'0 0.0
2014-Sep-29 17:33N 47°33' W 122°21'0 0.0
2014-Sep-29 16:33N 47°33' W 122°21'0 0.0
2014-Sep-29 15:33N 47°33' W 122°21'0 0.0
2014-Sep-29 14:33N 47°33' W 122°21'0 0.0
2014-Sep-29 13:33N 47°33' W 122°21'0 0.0
2014-Sep-29 12:33N 47°33' W 122°21'0 0.0
2014-Sep-29 11:33N 47°33' W 122°21'1 0.7
2014-Sep-29 10:31N 47°34' W 122°21'3 3.2
2014-Sep-29 09:33N 47°35' W 122°25'6 6.5
2014-Sep-29 08:33N 47°29' W 122°30'8 7.6
2014-Sep-29 07:33N 47°22' W 122°32'9 9.1
2014-Sep-29 06:33N 47°13' W 122°35'9 0.2
2014-Sep-27 14:15N 47°11' W 122°49'5 4.6
2014-Sep-27 13:06N 47°11' W 122°41'4 7.5
2014-Sep-27 12:34N 47°13' W 122°35'10 9.8
2014-Sep-27 11:33N 47°23' W 122°32'7 7.4
2014-Sep-27 10:34N 47°30' W 122°30'1 7.2
2014-Sep-27 10:28N 47°31' W 122°29'7 7.8
2014-Sep-27 09:34N 47°38' W 122°28'0 6.7
2014-Sep-27 09:32N 47°38' W 122°28'4 4.4
2014-Sep-27 08:34N 47°41' W 122°25'0 0.0
2014-Sep-27 08:32N 47°41' W 122°25'0 0.0
2014-Sep-27 07:34N 47°41' W 122°25'0 0.0
2014-Sep-27 07:32N 47°41' W 122°25'0 0.1
2014-Sep-27 06:52N 47°41' W 122°25'0 0.0
2014-Sep-27 06:34N 47°41' W 122°25'0 0.0
2014-Sep-27 05:34N 47°41' W 122°25'0 0.0
2014-Sep-27 05:32N 47°41' W 122°25'0 0.0
2014-Sep-27 04:34N 47°41' W 122°25'0 0.2
2014-Sep-27 04:31N 47°41' W 122°25'5 4.9
2014-Sep-27 03:33N 47°46' W 122°25'0 7.0
2014-Sep-27 03:31N 47°46' W 122°25'7 7.5
2014-Sep-27 02:34N 47°53' W 122°22'0 7.8
2014-Sep-27 02:31N 47°54' W 122°22'7 7.7
2014-Sep-27 01:34N 47°59' W 122°14'3 2.9
2014-Sep-27 00:33N 48°01' W 122°11'0 0.0
2014-Sep-26 23:33N 48°01' W 122°11'0 0.0
2014-Sep-26 22:34N 48°01' W 122°11'0 0.0
2014-Sep-26 21:26N 48°01' W 122°11'0 0.0
2014-Sep-26 20:33N 48°01' W 122°11'0 0.0
2014-Sep-26 18:20N 48°01' W 122°11'0 0.0
2014-Sep-26 17:32N 48°01' W 122°11'0 0.0
2014-Sep-26 16:32N 48°01' W 122°11'0 0.0
2014-Sep-26 15:33N 48°01' W 122°11'0 0.0
2014-Sep-26 14:30N 48°01' W 122°11'1 2.4
2014-Sep-26 14:01N 48°01' W 122°13'2 4.4
2014-Sep-26 13:34N 47°59' W 122°14'4 4.1
2014-Sep-26 12:34N 47°57' W 122°19'6 5.8
2014-Sep-26 11:34N 47°52' W 122°22'3 5.9
2014-Sep-26 11:07N 47°50' W 122°24'3 5.8
2014-Sep-26 10:34N 47°47' W 122°25'0 5.5
2014-Sep-26 10:31N 47°46' W 122°25'6 5.8
2014-Sep-26 09:33N 47°41' W 122°27'0 5.2
2014-Sep-26 09:31N 47°41' W 122°27'6 6.0
2014-Sep-26 08:34N 47°35' W 122°27'3 5.5
2014-Sep-26 08:04N 47°32' W 122°28'4 7.2
2014-Sep-26 07:33N 47°29' W 122°30'1 6.9
2014-Sep-26 07:24N 47°28' W 122°31'6 7.1
2014-Sep-26 06:33N 47°22' W 122°32'9 8.6
2014-Sep-26 05:33N 47°14' W 122°35'13 5.7
2014-Sep-26 03:19N 47°10' W 122°53'11 0.4
2014-Sep-25 00:22N 47°12' W 122°37'810.1
2014-Sep-24 23:33N 47°19' W 122°33'9 8.6
2014-Sep-24 22:33N 47°28' W 122°31'7 8.7
2014-Sep-24 21:48N 47°34' W 122°27'2 9.0
2014-Sep-24 21:33N 47°35' W 122°24'0 0.0
2014-Sep-24 21:33N 47°35' W 122°24'3 2.7
2014-Sep-24 20:33N 47°34' W 122°21'0 0.0
2014-Sep-24 20:33N 47°34' W 122°21'0 0.0
2014-Sep-24 19:33N 47°34' W 122°21'0 0.0
2014-Sep-24 19:33N 47°34' W 122°21'0 0.0
2014-Sep-24 18:33N 47°34' W 122°21'0 0.0
2014-Sep-24 18:33N 47°34' W 122°21'0 0.0
2014-Sep-24 17:31N 47°34' W 122°21'0 0.0
2014-Sep-24 17:28N 47°34' W 122°21'0 0.0
2014-Sep-24 16:33N 47°34' W 122°21'0 0.0
2014-Sep-24 16:33N 47°34' W 122°21'0 0.0
2014-Sep-24 15:33N 47°34' W 122°21'0 0.0
2014-Sep-24 15:32N 47°34' W 122°21'0 0.0
2014-Sep-24 14:33N 47°34' W 122°21'0 0.0
2014-Sep-24 14:32N 47°34' W 122°21'0 0.0
2014-Sep-24 13:33N 47°34' W 122°21'0 0.0
2014-Sep-24 13:32N 47°34' W 122°21'0 0.0
2014-Sep-24 12:33N 47°34' W 122°21'0 0.0
2014-Sep-24 12:32N 47°34' W 122°21'0 0.0
2014-Sep-24 11:33N 47°34' W 122°21'0 0.0
2014-Sep-24 11:32N 47°34' W 122°21'0 0.0
2014-Sep-24 10:33N 47°34' W 122°21'0 0.0
2014-Sep-24 10:32N 47°34' W 122°21'0 0.0
2014-Sep-24 09:33N 47°34' W 122°21'0 0.0
2014-Sep-24 09:31N 47°34' W 122°21'0 0.0
2014-Sep-24 08:33N 47°34' W 122°21'0 0.0
2014-Sep-24 08:31N 47°34' W 122°21'0 0.0
2014-Sep-24 07:33N 47°34' W 122°21'0 0.0
2014-Sep-24 07:31N 47°34' W 122°21'3 2.9
2014-Sep-24 06:33N 47°35' W 122°25'0 6.9
2014-Sep-24 06:31N 47°35' W 122°25'7 0.2
2014-Sep-23 00:32N 47°29' W 122°31'7 7.7
2014-Sep-22 23:33N 47°35' W 122°25'3 2.8
2014-Sep-22 22:33N 47°34' W 122°21'0 0.0
2014-Sep-22 21:33N 47°34' W 122°21'0 0.0
2014-Sep-22 20:33N 47°34' W 122°21'0 0.0
2014-Sep-22 19:33N 47°34' W 122°21'0 0.0
2014-Sep-22 18:25N 47°34' W 122°21'0 0.0
2014-Sep-22 17:33N 47°34' W 122°21'0 0.0
2014-Sep-22 16:33N 47°34' W 122°21'0 0.0
2014-Sep-22 15:30N 47°34' W 122°21'0 0.0
2014-Sep-22 14:33N 47°34' W 122°21'0 0.0
2014-Sep-22 12:33N 47°34' W 122°21'0 0.0
2014-Sep-22 11:33N 47°34' W 122°21'0 0.0
2014-Sep-22 10:33N 47°34' W 122°21'0 0.0
2014-Sep-22 09:32N 47°34' W 122°21'0 0.0
2014-Sep-22 08:33N 47°34' W 122°21'0 0.0
2014-Sep-22 07:33N 47°34' W 122°21'1 1.0
2014-Sep-22 06:33N 47°35' W 122°22'  

Dump ship's entire track history